createdAt,value
2022-07-25T00:06:41.783Z,0.00
2022-07-25T00:16:49.152Z,0.00
2022-07-25T00:26:56.004Z,0.00
2022-07-25T00:37:03.126Z,0.00
2022-07-25T00:47:10.126Z,0.00
2022-07-25T00:57:17.079Z,0.00
2022-07-25T01:07:24.310Z,0.00
2022-07-25T01:17:31.418Z,0.00
2022-07-25T01:27:38.689Z,0.00
2022-07-25T01:37:46.390Z,0.00
2022-07-25T01:47:53.329Z,0.00
2022-07-25T01:58:00.170Z,0.00
2022-07-25T02:08:07.980Z,0.00
2022-07-25T02:18:17.924Z,0.00
2022-07-25T02:28:24.970Z,0.00
2022-07-25T02:38:32.125Z,0.00
2022-07-25T02:48:39.665Z,0.00
2022-07-25T02:58:46.544Z,0.00
2022-07-25T03:08:53.775Z,0.00
2022-07-25T03:19:01.420Z,0.00
2022-07-25T03:29:08.324Z,0.00
2022-07-25T03:39:15.663Z,0.00
2022-07-25T03:49:22.738Z,0.00
2022-07-25T03:59:30.141Z,0.00
2022-07-25T04:09:36.194Z,0.00
2022-07-25T04:19:43.412Z,0.00
2022-07-25T04:29:51.239Z,0.00
2022-07-25T04:39:58.122Z,0.00
2022-07-25T04:50:05.469Z,0.00
2022-07-25T05:00:12.617Z,0.00
2022-07-25T05:10:19.666Z,0.00
2022-07-25T05:20:26.812Z,0.00
2022-07-25T05:30:39.371Z,0.00
2022-07-25T05:40:46.015Z,0.00
2022-07-25T05:50:53.017Z,0.00
2022-07-25T06:01:00.358Z,0.00
2022-07-25T06:11:08.276Z,0.00
2022-07-25T06:21:16.763Z,0.00
2022-07-25T06:31:24.112Z,16.00
2022-07-25T06:41:32.105Z,16.00
2022-07-25T06:51:38.990Z,12.00
2022-07-25T07:01:51.308Z,12.00
2022-07-25T07:11:58.545Z,12.00
2022-07-25T07:22:05.349Z,20.00
2022-07-25T07:32:15.175Z,16.00
2022-07-25T07:42:22.345Z,16.00
2022-07-25T07:52:29.584Z,12.00
2022-07-25T08:02:36.573Z,16.00
2022-07-25T08:12:43.694Z,12.00
2022-07-25T08:22:56.067Z,16.00
2022-07-25T08:33:02.337Z,48.00
2022-07-25T08:43:09.721Z,44.00
2022-07-25T08:53:32.807Z,44.00
2022-07-25T09:03:28.567Z,48.00
2022-07-25T09:13:35.816Z,48.00
2022-07-25T09:23:42.912Z,44.00
2022-07-25T09:33:49.746Z,52.00
2022-07-25T09:43:56.870Z,68.00
2022-07-25T09:54:04.288Z,20.00
2022-07-25T10:04:11.337Z,20.00
2022-07-25T10:14:18.568Z,20.00
2022-07-25T10:24:25.639Z,20.00
2022-07-25T10:34:32.861Z,24.00
2022-07-25T10:44:40.794Z,12.00
2022-07-25T10:54:47.971Z,24.00
2022-07-25T11:04:54.899Z,20.00
2022-07-25T11:15:01.707Z,0.00
2022-07-25T11:25:08.688Z,4.00
2022-07-25T11:35:16.165Z,0.00
2022-07-25T11:45:23.402Z,4.00
2022-07-25T11:55:30.470Z,4.00
2022-07-25T12:05:37.264Z,4.00
2022-07-25T12:15:44.053Z,8.00
2022-07-25T12:25:51.066Z,4.00
2022-07-25T12:35:57.910Z,4.00
2022-07-25T12:46:04.745Z,4.00
2022-07-25T12:56:11.764Z,8.00
2022-07-25T13:06:18.592Z,4.00
2022-07-25T13:16:25.412Z,0.00
2022-07-25T13:26:32.283Z,4.00
2022-07-25T13:36:38.770Z,0.00
2022-07-25T13:46:46.541Z,0.00
2022-07-25T13:56:53.572Z,4.00
2022-07-25T14:07:00.263Z,4.00
2022-07-25T14:17:07.293Z,12.00
2022-07-25T14:27:14.797Z,8.00
2022-07-25T14:37:21.915Z,12.00
2022-07-25T14:47:29.340Z,8.00
2022-07-25T14:57:36.413Z,8.00
2022-07-25T15:07:44.792Z,4.00
2022-07-25T15:17:52.010Z,0.00
2022-07-25T15:27:59.065Z,0.00
2022-07-25T15:38:06.117Z,0.00
2022-07-25T15:48:13.205Z,0.00
2022-07-25T15:58:20.266Z,4.00
2022-07-25T16:08:28.420Z,4.00
2022-07-25T16:18:35.615Z,0.00
2022-07-25T16:28:42.708Z,0.00
2022-07-25T16:38:49.579Z,0.00
2022-07-25T16:48:56.832Z,0.00
2022-07-25T16:59:04.303Z,0.00
2022-07-25T17:09:11.618Z,0.00
2022-07-25T17:19:18.842Z,0.00
2022-07-25T17:29:26.067Z,0.00
2022-07-25T17:39:33.430Z,0.00
2022-07-25T17:49:40.647Z,0.00
2022-07-25T17:59:47.868Z,0.00
2022-07-25T18:09:55.217Z,0.00
2022-07-25T18:20:02.710Z,0.00
2022-07-25T18:30:10.051Z,0.00
2022-07-25T18:40:17.320Z,0.00
2022-07-25T18:50:24.612Z,0.00
2022-07-25T19:00:31.486Z,0.00
2022-07-25T19:10:38.938Z,0.00
2022-07-25T19:20:46.218Z,0.00
2022-07-25T19:30:53.600Z,0.00
2022-07-25T19:41:00.767Z,0.00
2022-07-25T19:51:07.773Z,0.00
2022-07-25T20:01:14.481Z,0.00
2022-07-25T20:11:21.791Z,0.00
2022-07-25T20:21:29.125Z,0.00
2022-07-25T20:31:36.656Z,0.00
2022-07-25T20:41:44.617Z,0.00
2022-07-25T20:51:54.627Z,0.00
2022-07-25T21:02:02.506Z,0.00
2022-07-25T21:12:09.619Z,0.00
2022-07-25T21:22:16.505Z,0.00
2022-07-25T21:32:23.500Z,24.00
2022-07-25T21:42:30.661Z,20.00
2022-07-25T21:52:37.482Z,20.00
2022-07-25T22:02:45.010Z,20.00
2022-07-25T22:12:53.486Z,24.00
2022-07-25T22:23:00.715Z,24.00
2022-07-25T22:33:08.033Z,24.00
2022-07-25T22:43:15.175Z,24.00
2022-07-25T22:53:22.252Z,24.00
2022-07-25T23:03:32.329Z,20.00
2022-07-25T23:13:42.308Z,0.00
2022-07-25T23:23:49.140Z,0.00
2022-07-25T23:33:56.372Z,0.00
2022-07-25T23:44:03.116Z,0.00
2022-07-25T23:54:11.108Z,0.00
